sensor_id;sensor_type;location;lat;lon;timestamp;pressure;altitude;pressure_sealevel;temperature;humidity
29505;BME280;16452;54.174;12.092;2023-02-10T00:01:21;102780.00;;;5.31;100.00
29505;BME280;16452;54.174;12.092;2023-02-10T00:03:47;102778.25;;;5.25;100.00
29505;BME280;16452;54.174;12.092;2023-02-10T00:06:15;102787.72;;;5.16;100.00
29505;BME280;16452;54.174;12.092;2023-02-10T00:08:42;102783.41;;;5.12;100.00
29505;BME280;16452;54.174;12.092;2023-02-10T00:11:11;102781.69;;;5.24;100.00
29505;BME280;16452;54.174;12.092;2023-02-10T00:13:39;102777.31;;;4.93;100.00
29505;BME280;16452;54.174;12.092;2023-02-10T00:16:09;102772.19;;;5.08;100.00
29505;BME280;16452;54.174;12.092;2023-02-10T00:18:35;102782.44;;;4.90;100.00
29505;BME280;16452;54.174;12.092;2023-02-10T00:21:14;102780.72;;;4.84;100.00
29505;BME280;16452;54.174;12.092;2023-02-10T00:23:41;102783.28;;;4.75;100.00
29505;BME280;16452;54.174;12.092;2023-02-10T00:26:12;102792.84;;;4.99;100.00
29505;BME280;16452;54.174;12.092;2023-02-10T00:28:40;102783.34;;;5.01;100.00
29505;BME280;16452;54.174;12.092;2023-02-10T00:31:08;102783.28;;;4.75;100.00
29505;BME280;16452;54.174;12.092;2023-02-10T00:33:34;102783.34;;;4.98;100.00
29505;BME280;16452;54.174;12.092;2023-02-10T00:36:07;102792.84;;;5.05;100.00
29505;BME280;16452;54.174;12.092;2023-02-10T00:38:34;102792.84;;;5.13;100.00
29505;BME280;16452;54.174;12.092;2023-02-10T00:41:05;102795.38;;;4.93;100.00
29505;BME280;16452;54.174;12.092;2023-02-10T00:43:31;102798.84;;;4.98;100.00
29505;BME280;16452;54.174;12.092;2023-02-10T00:45:57;102801.41;;;4.90;100.00
29505;BME280;16452;54.174;12.092;2023-02-10T00:48:23;102798.81;;;4.87;100.00
29505;BME280;16452;54.174;12.092;2023-02-10T00:50:48;102805.66;;;4.81;100.00
29505;BME280;16452;54.174;12.092;2023-02-10T00:53:14;102797.97;;;4.97;100.00
29505;BME280;16452;54.174;12.092;2023-02-10T00:55:40;102795.41;;;4.99;100.00
29505;BME280;16452;54.174;12.092;2023-02-10T00:58:05;102798.72;;;4.72;100.00
29505;BME280;16452;54.174;12.092;2023-02-10T01:00:31;102804.75;;;4.70;100.00
29505;BME280;16452;54.174;12.092;2023-02-10T01:02:57;102799.63;;;4.77;100.00
29505;BME280;16452;54.174;12.092;2023-02-10T01:05:22;102797.94;;;4.87;100.00
29505;BME280;16452;54.174;12.092;2023-02-10T01:07:48;102801.38;;;4.86;100.00
29505;BME280;16452;54.174;12.092;2023-02-10T01:10:14;102797.06;;;4.77;100.00
29505;BME280;16452;54.174;12.092;2023-02-10T01:12:40;102803.88;;;4.69;100.00
29505;BME280;16452;54.174;12.092;2023-02-10T01:15:06;102806.44;;;4.63;100.00
29505;BME280;16452;54.174;12.092;2023-02-10T01:17:32;102811.69;;;4.81;100.00
29505;BME280;16452;54.174;12.092;2023-02-10T01:19:58;102804.75;;;4.73;100.00
29505;BME280;16452;54.174;12.092;2023-02-10T01:22:23;102805.59;;;4.66;100.00
29505;BME280;16452;54.174;12.092;2023-02-10T01:24:49;102804.81;;;4.82;100.00
29505;BME280;16452;54.174;12.092;2023-02-10T01:27:15;102803.84;;;4.66;100.00
29505;BME280;16452;54.174;12.092;2023-02-10T01:29:40;102805.63;;;4.75;100.00
29505;BME280;16452;54.174;12.092;2023-02-10T01:32:06;102805.63;;;4.78;100.00
29505;BME280;16452;54.174;12.092;2023-02-10T01:34:32;102803.94;;;4.80;100.00
29505;BME280;16452;54.174;12.092;2023-02-10T01:36:57;102803.88;;;4.68;100.00
29505;BME280;16452;54.174;12.092;2023-02-10T01:39:23;102794.47;;;4.76;100.00
29505;BME280;16452;54.174;12.092;2023-02-10T01:41:49;102798.78;;;4.86;100.00
29505;BME280;16452;54.174;12.092;2023-02-10T01:46:47;102809.06;;;4.72;100.00
29505;BME280;16452;54.174;12.092;2023-02-10T01:49:21;102808.16;;;4.67;100.00
29505;BME280;16452;54.174;12.092;2023-02-10T01:51:56;102809.06;;;4.74;100.00
29505;BME280;16452;54.174;12.092;2023-02-10T01:54:27;102803.03;;;4.69;100.00
29505;BME280;16452;54.174;12.092;2023-02-10T01:56:56;102807.31;;;4.67;100.00
29505;BME280;16452;54.174;12.092;2023-02-10T01:59:26;102805.69;;;4.90;100.00
29505;BME280;16452;54.174;12.092;2023-02-10T02:01:53;102815.16;;;4.88;100.00
29505;BME280;16452;54.174;12.092;2023-02-10T02:04:19;102809.97;;;4.85;100.00
29505;BME280;16452;54.174;12.092;2023-02-10T02:06:45;102801.38;;;4.84;100.00
29505;BME280;16452;54.174;12.092;2023-02-10T02:09:12;102810.03;;;4.97;100.00
29505;BME280;16452;54.174;12.092;2023-02-10T02:15:40;102800.63;;;5.19;100.00
29505;BME280;16452;54.174;12.092;2023-02-10T02:18:55;102814.31;;;4.92;100.00
29505;BME280;16452;54.174;12.092;2023-02-10T02:21:47;102809.97;;;4.85;100.00
29505;BME280;16452;54.174;12.092;2023-02-10T02:33:51;102814.28;;;4.86;100.00
29505;BME280;16452;54.174;12.092;2023-02-10T02:36:38;102815.22;;;5.03;100.00
29505;BME280;16452;54.174;12.092;2023-02-10T02:39:05;102820.38;;;4.97;100.00
29505;BME280;16452;54.174;12.092;2023-02-10T02:41:33;102821.25;;;5.04;100.00
29505;BME280;16452;54.174;12.092;2023-02-10T02:44:00;102818.69;;;5.08;100.00
29505;BME280;16452;54.174;12.092;2023-02-10T02:46:56;102813.53;;;5.10;100.00
29505;BME280;16452;54.174;12.092;2023-02-10T02:50:07;102807.56;;;5.32;100.00
29505;BME280;16452;54.174;12.092;2023-02-10T02:55:58;102811.81;;;5.19;100.00
29505;BME280;16452;54.174;12.092;2023-02-10T03:01:21;102816.06;;;4.99;100.00
29505;BME280;16452;54.174;12.092;2023-02-10T03:03:54;102831.66;;;5.22;100.00
29505;BME280;16452;54.174;12.092;2023-02-10T03:06:20;102820.44;;;5.15;100.00
29505;BME280;16452;54.174;12.092;2023-02-10T03:08:46;102819.56;;;5.13;100.00
29505;BME280;16452;54.174;12.092;2023-02-10T03:11:12;102817.84;;;5.06;100.00
29505;BME280;16452;54.174;12.092;2023-02-10T03:13:38;102823.81;;;4.99;100.00
29505;BME280;16452;54.174;12.092;2023-02-10T03:16:04;102823.84;;;5.04;100.00
29505;BME280;16452;54.174;12.092;2023-02-10T03:18:30;102825.50;;;4.95;100.00
29505;BME280;16452;54.174;12.092;2023-02-10T03:20:56;102833.31;;;5.03;100.00
29505;BME280;16452;54.174;12.092;2023-02-10T03:23:22;102828.94;;;4.88;100.00
29505;BME280;16452;54.174;12.092;2023-02-10T03:25:47;102836.75;;;5.05;100.00
29505;BME280;16452;54.174;12.092;2023-02-10T03:28:13;102830.66;;;4.91;100.00
29505;BME280;16452;54.174;12.092;2023-02-10T03:30:39;102833.31;;;5.00;100.00
29505;BME280;16452;54.174;12.092;2023-02-10T03:33:08;102835.03;;;5.09;100.00
29505;BME280;16452;54.174;12.092;2023-02-10T03:35:36;102833.38;;;5.23;100.00
29505;BME280;16452;54.174;12.092;2023-02-10T03:38:03;102832.56;;;5.33;100.00
29505;BME280;16452;54.174;12.092;2023-02-10T03:40:29;102833.34;;;5.12;100.00
29505;BME280;16452;54.174;12.092;2023-02-10T03:42:54;102842.81;;;5.15;100.00
29505;BME280;16452;54.174;12.092;2023-02-10T03:45:20;102834.25;;;5.26;100.00
29505;BME280;16452;54.174;12.092;2023-02-10T03:47:46;102844.66;;;5.42;100.00
29505;BME280;16452;54.174;12.092;2023-02-10T03:50:12;102846.38;;;5.55;100.00
29505;BME280;16452;54.174;12.092;2023-02-10T03:52:37;102856.72;;;5.47;100.00
29505;BME280;16452;54.174;12.092;2023-02-10T03:55:03;102850.63;;;5.24;100.00
29505;BME280;16452;54.174;12.092;2023-02-10T03:57:29;102860.13;;;5.48;100.00
29505;BME280;16452;54.174;12.092;2023-02-10T03:59:55;102862.75;;;5.51;100.00
29505;BME280;16452;54.174;12.092;2023-02-10T04:02:20;102867.03;;;5.49;100.00
29505;BME280;16452;54.174;12.092;2023-02-10T04:04:46;102861.03;;;5.56;100.00
29505;BME280;16452;54.174;12.092;2023-02-10T04:07:12;102861.88;;;5.49;100.00
29505;BME280;16452;54.174;12.092;2023-02-10T04:09:37;102863.63;;;5.53;100.00
29505;BME280;16452;54.174;12.092;2023-02-10T04:12:03;102859.34;;;5.68;100.00
29505;BME280;16452;54.174;12.092;2023-02-10T04:14:29;102855.88;;;5.57;100.00
29505;BME280;16452;54.174;12.092;2023-02-10T04:16:55;102856.75;;;5.64;100.00
29505;BME280;16452;54.174;12.092;2023-02-10T04:19:21;102859.31;;;5.65;100.00
29505;BME280;16452;54.174;12.092;2023-02-10T04:21:46;102869.63;;;5.40;100.00
29505;BME280;16452;54.174;12.092;2023-02-10T04:24:13;102864.44;;;5.38;100.00
29505;BME280;16452;54.174;12.092;2023-02-10T04:26:39;102859.31;;;5.59;100.00
29505;BME280;16452;54.174;12.092;2023-02-10T04:29:05;102852.38;;;5.35;100.00
29505;BME280;16452;54.174;12.092;2023-02-10T04:31:31;102865.34;;;5.61;100.00
29505;BME280;16452;54.174;12.092;2023-02-10T04:33:57;102851.59;;;5.68;100.00
29505;BME280;16452;54.174;12.092;2023-02-10T04:36:22;102855.91;;;5.83;100.00
29505;BME280;16452;54.174;12.092;2023-02-10T04:38:48;102839.47;;;5.46;100.00
29505;BME280;16452;54.174;12.092;2023-02-10T04:41:14;102838.66;;;5.58;100.00
29505;BME280;16452;54.174;12.092;2023-02-10T04:43:39;102836.03;;;5.41;100.00
29505;BME280;16452;54.174;12.092;2023-02-10T04:46:05;102831.69;;;5.32;100.00
29505;BME280;16452;54.174;12.092;2023-02-10T04:48:31;102829.13;;;5.54;100.00
29505;BME280;16452;54.174;12.092;2023-02-10T04:50:57;102829.16;;;5.52;100.00
29505;BME280;16452;54.174;12.092;2023-02-10T04:53:23;102828.25;;;5.43;100.00
29505;BME280;16452;54.174;12.092;2023-02-10T04:55:49;102818.78;;;5.49;100.00
29505;BME280;16452;54.174;12.092;2023-02-10T04:58:15;102827.44;;;5.51;100.00
29505;BME280;16452;54.174;12.092;2023-02-10T05:00:40;102831.75;;;5.52;100.00
29505;BME280;16452;54.174;12.092;2023-02-10T05:03:06;102828.28;;;5.44;100.00
29505;BME280;16452;54.174;12.092;2023-02-10T05:05:32;102833.38;;;5.23;100.00
29505;BME280;16452;54.174;12.092;2023-02-10T05:07:57;102848.13;;;5.53;100.00
29505;BME280;16452;54.174;12.092;2023-02-10T05:10:23;102854.09;;;5.43;100.00
29505;BME280;16452;54.174;12.092;2023-02-10T05:12:49;102851.50;;;5.35;100.00
29505;BME280;16452;54.174;12.092;2023-02-10T05:15:15;102852.25;;;5.08;100.00
29505;BME280;16452;54.174;12.092;2023-02-10T05:17:41;102848.91;;;5.32;100.00
29505;BME280;16452;54.174;12.092;2023-02-10T05:20:08;102842.91;;;5.45;100.00
29505;BME280;16452;54.174;12.092;2023-02-10T05:22:36;102846.31;;;5.30;100.00
29505;BME280;16452;54.174;12.092;2023-02-10T05:25:02;102855.00;;;5.42;100.00
29505;BME280;16452;54.174;12.092;2023-02-10T05:27:28;102862.69;;;5.32;100.00
29505;BME280;16452;54.174;12.092;2023-02-10T05:29:53;102868.72;;;5.31;100.00
29505;BME280;16452;54.174;12.092;2023-02-10T05:32:19;102877.34;;;5.33;100.00
29505;BME280;16452;54.174;12.092;2023-02-10T05:34:45;102882.56;;;5.59;100.00
29505;BME280;16452;54.174;12.092;2023-02-10T05:37:11;102885.16;;;5.56;100.00
29505;BME280;16452;54.174;12.092;2023-02-10T05:39:36;102885.19;;;5.64;100.00
29505;BME280;16452;54.174;12.092;2023-02-10T05:42:02;102889.44;;;5.45;100.00
29505;BME280;16452;54.174;12.092;2023-02-10T05:44:29;102880.00;;;5.61;100.00
29505;BME280;16452;54.174;12.092;2023-02-10T05:46:55;102884.28;;;5.47;100.00
29505;BME280;16452;54.174;12.092;2023-02-10T05:49:21;102882.56;;;5.55;100.00
29505;BME280;16452;54.174;12.092;2023-02-10T05:51:47;102882.59;;;5.61;100.00
29505;BME280;16452;54.174;12.092;2023-02-10T05:54:13;102879.97;;;5.55;100.00
29505;BME280;16452;54.174;12.092;2023-02-10T05:56:39;102876.56;;;5.71;100.00
29505;BME280;16452;54.174;12.092;2023-02-10T05:59:05;102876.59;;;5.83;100.00
29505;BME280;16452;54.174;12.092;2023-02-10T06:01:32;102868.84;;;5.74;100.00
29505;BME280;16452;54.174;12.092;2023-02-10T06:04:00;102876.59;;;5.72;100.00
29505;BME280;16452;54.174;12.092;2023-02-10T06:06:26;102882.59;;;5.65;100.00
29505;BME280;16452;54.174;12.092;2023-02-10T06:08:52;102882.66;;;5.85;100.00
29505;BME280;16452;54.174;12.092;2023-02-10T06:11:18;102889.53;;;5.69;100.00
29505;BME280;16452;54.174;12.092;2023-02-10T06:13:44;102895.63;;;5.88;100.00
29505;BME280;16452;54.174;12.092;2023-02-10T06:16:09;102901.59;;;5.75;100.00
29505;BME280;16452;54.174;12.092;2023-02-10T06:18:36;102908.47;;;5.73;100.00
29505;BME280;16452;54.174;12.092;2023-02-10T06:21:02;102914.53;;;5.76;100.00
29505;BME280;16452;54.174;12.092;2023-02-10T06:23:28;102912.84;;;5.95;100.00
29505;BME280;16452;54.174;12.092;2023-02-10T06:25:54;102918.91;;;5.88;100.00
29505;BME280;16452;54.174;12.092;2023-02-10T06:28:24;102913.75;;;5.99;100.00
29505;BME280;16452;54.174;12.092;2023-02-10T06:30:50;102913.72;;;5.94;100.00
29505;BME280;16452;54.174;12.092;2023-02-10T06:33:17;102916.31;;;5.91;100.00
29505;BME280;16452;54.174;12.092;2023-02-10T06:35:43;102922.34;;;5.90;100.00
29505;BME280;16452;54.174;12.092;2023-02-10T06:38:09;102926.59;;;5.74;100.00
29505;BME280;16452;54.174;12.092;2023-02-10T06:40:35;102921.50;;;6.03;100.00
29505;BME280;16452;54.174;12.092;2023-02-10T06:43:01;102928.31;;;5.78;100.00
29505;BME280;16452;54.174;12.092;2023-02-10T06:45:28;102933.53;;;5.89;100.00
29505;BME280;16452;54.174;12.092;2023-02-10T06:47:53;102929.13;;;5.62;100.00
29505;BME280;16452;54.174;12.092;2023-02-10T06:50:19;102941.25;;;5.83;100.00
29505;BME280;16452;54.174;12.092;2023-02-10T06:52:46;102936.97;;;5.87;100.00
29505;BME280;16452;54.174;12.092;2023-02-10T06:55:12;102932.59;;;5.67;100.00
29505;BME280;16452;54.174;12.092;2023-02-10T06:57:38;102938.66;;;5.77;100.00
29505;BME280;16452;54.174;12.092;2023-02-10T07:00:08;102927.47;;;5.86;100.00
29505;BME280;16452;54.174;12.092;2023-02-10T07:02:35;102930.13;;;6.02;100.00
29505;BME280;16452;54.174;12.092;2023-02-10T07:05:02;102936.16;;;6.00;100.00
29505;BME280;16452;54.174;12.092;2023-02-10T07:07:30;102931.84;;;6.00;100.00
29505;BME280;16452;54.174;12.092;2023-02-10T07:09:55;102949.09;;;6.04;100.00
29505;BME280;16452;54.174;12.092;2023-02-10T07:12:21;102951.69;;;6.01;100.00
29505;BME280;16452;54.174;12.092;2023-02-10T07:14:47;102947.38;;;5.97;100.00
29505;BME280;16452;54.174;12.092;2023-02-10T07:17:13;102954.28;;;6.00;100.00
29505;BME280;16452;54.174;12.092;2023-02-10T07:19:38;102954.25;;;5.97;100.00
29505;BME280;16452;54.174;12.092;2023-02-10T07:22:04;102941.34;;;6.07;100.00
29505;BME280;16452;54.174;12.092;2023-02-10T07:24:32;102939.59;;;5.94;100.00
29505;BME280;16452;54.174;12.092;2023-02-10T07:26:58;102948.22;;;6.02;100.00
29505;BME280;16452;54.174;12.092;2023-02-10T07:29:31;102950.00;;;6.26;100.00
29505;BME280;16452;54.174;12.092;2023-02-10T07:31:58;102961.19;;;6.05;100.00
29505;BME280;16452;54.174;12.092;2023-02-10T07:34:24;102961.16;;;5.98;100.00
29505;BME280;16452;54.174;12.092;2023-02-10T07:36:51;102961.22;;;6.42;100.00
29505;BME280;16452;54.174;12.092;2023-02-10T07:39:23;102977.63;;;6.44;100.00
29505;BME280;16452;54.174;12.092;2023-02-10T07:41:50;102983.63;;;6.22;100.00
29505;BME280;16452;54.174;12.092;2023-02-10T07:44:18;102982.78;;;6.54;100.00
29505;BME280;16452;54.174;12.092;2023-02-10T07:46:47;102983.66;;;6.41;100.00
29505;BME280;16452;54.174;12.092;2023-02-10T07:49:13;102982.81;;;6.39;100.00
29505;BME280;16452;54.174;12.092;2023-02-10T07:51:38;102988.81;;;6.41;100.00
29505;BME280;16452;54.174;12.092;2023-02-10T07:54:04;102994.88;;;6.45;100.00
29505;BME280;16452;54.174;12.092;2023-02-10T07:56:32;103000.03;;;6.52;100.00
29505;BME280;16452;54.174;12.092;2023-02-10T07:58:58;103017.34;;;6.63;100.00
29505;BME280;16452;54.174;12.092;2023-02-10T08:01:25;103013.88;;;6.50;100.00
29505;BME280;16452;54.174;12.092;2023-02-10T08:03:51;103010.44;;;6.69;100.00
29505;BME280;16452;54.174;12.092;2023-02-10T08:06:22;103006.97;;;6.53;100.00
29505;BME280;16452;54.174;12.092;2023-02-10T08:08:49;103003.50;;;6.48;100.00
29505;BME280;16452;54.174;12.092;2023-02-10T08:11:16;103012.16;;;6.56;100.00
29505;BME280;16452;54.174;12.092;2023-02-10T08:13:42;103012.16;;;6.61;100.00
29505;BME280;16452;54.174;12.092;2023-02-10T08:16:09;103013.91;;;6.70;100.00
29505;BME280;16452;54.174;12.092;2023-02-10T08:18:38;103018.19;;;6.66;100.00
29505;BME280;16452;54.174;12.092;2023-02-10T08:21:05;103017.31;;;6.50;100.00
29505;BME280;16452;54.174;12.092;2023-02-10T08:23:31;103019.03;;;6.53;100.00
29505;BME280;16452;54.174;12.092;2023-02-10T08:25:57;103013.88;;;6.62;100.00
29505;BME280;16452;54.174;12.092;2023-02-10T08:28:23;103014.72;;;6.44;100.00
29505;BME280;16452;54.174;12.092;2023-02-10T08:30:49;103015.59;;;6.62;100.00
29505;BME280;16452;54.174;12.092;2023-02-10T08:33:15;103014.75;;;6.67;100.00
29505;BME280;16452;54.174;12.092;2023-02-10T08:35:41;103009.56;;;6.67;100.00
29505;BME280;16452;54.174;12.092;2023-02-10T08:38:07;103010.44;;;6.74;100.00
29505;BME280;16452;54.174;12.092;2023-02-10T08:40:35;103012.16;;;6.72;100.00
29505;BME280;16452;54.174;12.092;2023-02-10T08:43:01;103018.19;;;6.66;100.00
29505;BME280;16452;54.174;12.092;2023-02-10T08:45:27;103024.25;;;6.83;100.00
29505;BME280;16452;54.174;12.092;2023-02-10T08:47:53;103034.63;;;6.92;100.00
29505;BME280;16452;54.174;12.092;2023-02-10T08:50:19;103036.34;;;6.84;100.00
29505;BME280;16452;54.174;12.092;2023-02-10T08:52:54;103035.47;;;6.84;100.00
29505;BME280;16452;54.174;12.092;2023-02-10T08:55:20;103042.38;;;6.67;100.00
29505;BME280;16452;54.174;12.092;2023-02-10T08:57:46;103042.38;;;6.88;100.00
29505;BME280;16452;54.174;12.092;2023-02-10T09:00:12;103051.88;;;6.86;100.00
29505;BME280;16452;54.174;12.092;2023-02-10T09:02:38;103043.22;;;7.20;100.00
29505;BME280;16452;54.174;12.092;2023-02-10T09:05:04;103036.28;;;7.24;100.00
29505;BME280;16452;54.174;12.092;2023-02-10T09:07:30;103049.28;;;7.15;100.00
29505;BME280;16452;54.174;12.092;2023-02-10T09:09:56;103040.63;;;7.07;100.00
29505;BME280;16452;54.174;12.092;2023-02-10T09:12:22;103039.72;;;7.29;100.00
29505;BME280;16452;54.174;12.092;2023-02-10T09:14:48;103037.16;;;7.18;100.00
29505;BME280;16452;54.174;12.092;2023-02-10T09:17:14;103040.63;;;7.13;100.00
29505;BME280;16452;54.174;12.092;2023-02-10T09:19:39;103048.41;;;7.13;100.00
29505;BME280;16452;54.174;12.092;2023-02-10T09:22:07;103049.22;;;7.40;100.00
29505;BME280;16452;54.174;12.092;2023-02-10T09:24:33;103047.50;;;7.38;100.00
29505;BME280;16452;54.174;12.092;2023-02-10T09:26:59;103045.75;;;7.49;100.00
29505;BME280;16452;54.174;12.092;2023-02-10T09:29:25;103041.44;;;7.50;100.00
29505;BME280;16452;54.174;12.092;2023-02-10T09:31:51;103040.59;;;7.38;100.00
29505;BME280;16452;54.174;12.092;2023-02-10T09:34:17;103044.00;;;7.54;100.00
29505;BME280;16452;54.174;12.092;2023-02-10T09:36:43;103039.72;;;7.50;100.00
29505;BME280;16452;54.174;12.092;2023-02-10T09:39:09;103036.19;;;7.68;100.00
29505;BME280;16452;54.174;12.092;2023-02-10T09:41:41;103037.81;;;7.96;100.00
29505;BME280;16452;54.174;12.092;2023-02-10T09:44:23;103047.13;;;8.35;100.00
29505;BME280;16452;54.174;12.092;2023-02-10T09:49:50;103060.28;;;7.96;100.00
29505;BME280;16452;54.174;12.092;2023-02-10T09:52:36;103058.53;;;7.99;100.00
29505;BME280;16452;54.174;12.092;2023-02-10T09:55:33;103066.34;;;7.95;100.00
29505;BME280;16452;54.174;12.092;2023-02-10T09:58:19;103058.50;;;8.07;100.00
29505;BME280;16452;54.174;12.092;2023-02-10T10:00:46;103065.56;;;7.73;100.00
29505;BME280;16452;54.174;12.092;2023-02-10T10:03:28;103079.31;;;7.93;100.00
29505;BME280;16452;54.174;12.092;2023-02-10T10:06:29;103075.81;;;8.08;100.00
29505;BME280;16452;54.174;12.092;2023-02-10T10:11:49;103074.03;;;8.17;100.00
29505;BME280;16452;54.174;12.092;2023-02-10T10:14:24;103068.09;;;7.88;100.00
29505;BME280;16452;54.174;12.092;2023-02-10T10:20:53;103068.97;;;7.87;100.00
29505;BME280;16452;54.174;12.092;2023-02-10T10:24:04;103075.81;;;8.05;100.00
29505;BME280;16452;54.174;12.092;2023-02-10T10:32:15;103067.03;;;8.35;100.00
29505;BME280;16452;54.174;12.092;2023-02-10T10:34:50;103056.75;;;8.12;100.00
29505;BME280;16452;54.174;12.092;2023-02-10T10:37:23;103057.56;;;8.21;100.00
29505;BME280;16452;54.174;12.092;2023-02-10T10:39:57;103055.78;;;8.36;100.00
29505;BME280;16452;54.174;12.092;2023-02-10T10:42:45;103061.00;;;8.37;100.00
29505;BME280;16452;54.174;12.092;2023-02-10T10:45:24;103067.81;;;8.52;100.00
29505;BME280;16452;54.174;12.092;2023-02-10T10:50:43;103058.50;;;8.05;100.00
29505;BME280;16452;54.174;12.092;2023-02-10T10:56:08;103061.00;;;8.37;100.00
29505;BME280;16452;54.174;12.092;2023-02-10T10:58:41;103063.53;;;8.42;100.00
29505;BME280;16452;54.174;12.092;2023-02-10T11:01:09;103052.47;;;8.03;100.00
29505;BME280;16452;54.174;12.092;2023-02-10T11:03:35;103052.41;;;8.20;100.00
29505;BME280;16452;54.174;12.092;2023-02-10T11:06:13;103058.28;;;8.51;100.00
29505;BME280;16452;54.174;12.092;2023-02-10T11:08:58;103049.84;;;8.11;100.00
29505;BME280;16452;54.174;12.092;2023-02-10T11:11:40;103054.16;;;8.15;100.00
29505;BME280;16452;54.174;12.092;2023-02-10T11:14:26;103059.38;;;8.06;100.00
29505;BME280;16452;54.174;12.092;2023-02-10T11:16:58;103052.47;;;8.08;100.00
29505;BME280;16452;54.174;12.092;2023-02-10T11:19:32;103054.25;;;7.89;100.00
29505;BME280;16452;54.174;12.092;2023-02-10T11:21:59;103046.47;;;7.97;100.00
29505;BME280;16452;54.174;12.092;2023-02-10T11:24:29;103048.00;;;8.28;100.00
29505;BME280;16452;54.174;12.092;2023-02-10T11:26:56;103042.81;;;8.28;100.00
29505;BME280;16452;54.174;12.092;2023-02-10T11:29:22;103034.19;;;8.24;100.00
29505;BME280;16452;54.174;12.092;2023-02-10T11:31:52;103023.56;;;8.64;100.00
29505;BME280;16452;54.174;12.092;2023-02-10T11:34:44;103028.50;;;8.96;100.00
29505;BME280;16452;54.174;12.092;2023-02-10T11:37:23;103013.81;;;8.90;100.00
29505;BME280;16452;54.174;12.092;2023-02-10T11:39:52;103024.13;;;9.01;100.00
29505;BME280;16452;54.174;12.092;2023-02-10T11:42:22;103026.00;;;8.84;100.00
29505;BME280;16452;54.174;12.092;2023-02-10T11:45:18;103026.66;;;9.05;100.00
29505;BME280;16452;54.174;12.092;2023-02-10T11:47:45;103022.22;;;9.17;99.66
29505;BME280;16452;54.174;12.092;2023-02-10T11:50:26;103020.59;;;9.05;99.71
29505;BME280;16452;54.174;12.092;2023-02-10T11:52:52;103023.28;;;8.97;98.80
29505;BME280;16452;54.174;12.092;2023-02-10T11:55:19;103010.03;;;9.20;97.73
29505;BME280;16452;54.174;12.092;2023-02-10T12:07:06;102999.63;;;9.23;97.42
29505;BME280;16452;54.174;12.092;2023-02-10T12:12:53;103004.72;;;9.34;96.46
29505;BME280;16452;54.174;12.092;2023-02-10T12:27:08;102980.50;;;9.29;96.74
29505;BME280;16452;54.174;12.092;2023-02-10T12:30:22;102978.69;;;9.34;96.69
29505;BME280;16452;54.174;12.092;2023-02-10T12:33:34;102973.75;;;9.11;97.35
29505;BME280;16452;54.174;12.092;2023-02-10T12:36:08;102970.97;;;9.28;97.15
29505;BME280;16452;54.174;12.092;2023-02-10T12:42:07;102967.44;;;9.33;94.42
29505;BME280;16452;54.174;12.092;2023-02-10T12:53:42;102961.19;;;8.65;98.48
29505;BME280;16452;54.174;12.092;2023-02-10T12:56:40;102945.41;;;8.85;98.56
29505;BME280;16452;54.174;12.092;2023-02-10T12:59:32;102957.69;;;8.68;99.77
29505;BME280;16452;54.174;12.092;2023-02-10T13:02:08;102942.03;;;8.77;99.63
29505;BME280;16452;54.174;12.092;2023-02-10T13:04:47;102929.16;;;8.62;100.00
29505;BME280;16452;54.174;12.092;2023-02-10T13:07:36;102940.13;;;8.94;99.18
29505;BME280;16452;54.174;12.092;2023-02-10T13:11:11;102931.53;;;8.86;99.35
29505;BME280;16452;54.174;12.092;2023-02-10T13:13:40;102936.84;;;8.79;100.00
29505;BME280;16452;54.174;12.092;2023-02-10T13:16:31;102943.78;;;8.74;100.00
29505;BME280;16452;54.174;12.092;2023-02-10T13:28:06;102934.56;;;8.42;100.00
29505;BME280;16452;54.174;12.092;2023-02-10T13:36:04;102902.44;;;8.51;100.00
29505;BME280;16452;54.174;12.092;2023-02-10T13:38:34;102904.00;;;8.70;100.00
29505;BME280;16452;54.174;12.092;2023-02-10T13:41:01;102902.44;;;8.51;100.00
29505;BME280;16452;54.174;12.092;2023-02-10T13:43:46;102908.66;;;8.29;100.00
29505;BME280;16452;54.174;12.092;2023-02-10T13:46:27;102903.38;;;8.44;100.00
29505;BME280;16452;54.174;12.092;2023-02-10T13:48:57;102904.31;;;8.38;100.00
29505;BME280;16452;54.174;12.092;2023-02-10T13:51:36;102907.69;;;8.46;100.00
29505;BME280;16452;54.174;12.092;2023-02-10T13:54:04;102908.47;;;8.53;100.00
29505;BME280;16452;54.174;12.092;2023-02-10T13:56:33;102914.59;;;8.46;100.00
29505;BME280;16452;54.174;12.092;2023-02-10T13:59:03;102918.16;;;8.36;100.00
29505;BME280;16452;54.174;12.092;2023-02-10T14:01:39;102919.84;;;8.43;100.00
29505;BME280;16452;54.174;12.092;2023-02-10T14:06:45;102907.88;;;8.19;100.00
29505;BME280;16452;54.174;12.092;2023-02-10T14:11:56;102893.09;;;8.30;100.00
29505;BME280;16452;54.174;12.092;2023-02-10T14:14:30;102882.59;;;8.44;100.00
29505;BME280;16452;54.174;12.092;2023-02-10T14:17:21;102887.00;;;8.30;100.00
29505;BME280;16452;54.174;12.092;2023-02-10T14:19:53;102901.03;;;8.06;100.00
29505;BME280;16452;54.174;12.092;2023-02-10T14:22:36;102907.91;;;8.13;100.00
29505;BME280;16452;54.174;12.092;2023-02-10T14:25:38;102907.91;;;8.14;100.00
29505;BME280;16452;54.174;12.092;2023-02-10T14:28:17;102901.00;;;8.10;100.00
29505;BME280;16452;54.174;12.092;2023-02-10T14:30:54;102893.94;;;8.29;100.00
29505;BME280;16452;54.174;12.092;2023-02-10T14:33:33;102889.66;;;8.25;100.00
29505;BME280;16452;54.174;12.092;2023-02-10T14:36:03;102869.88;;;8.09;100.00